EISG 191930Z 17008KT 130V210 9999 FEW020 SCT027 BKN049 14/10 Q1012 EISG 191830Z 20012G25KT 150V230 9999 FEW021 BKN032 15/07 Q1012 EISG 191530Z 20011G29KT 160V230 9999 SCT048 SCT055 16/06 Q1012 EISG 191500Z 19012KT 130V230 9999 FEW020 SCT050 16/06 Q1012 EISG 191430Z 22013KT 9999 FEW043 SCT049 14/09 Q1012 EISG 191400Z 20007KT 140V250 9999 FEW013 SCT020 BKN060 14/10 Q1012 EISG 191330Z 20010G20KT 150V220 -SHRA FEW017 BKN048 15/08 Q1012 EISG 191300Z 18009G21KT 150V210 9999 FEW025 BKN045 15/08 Q1012 EISG 191230Z 18010G24KT 140V210 9999 FEW035 SCT045 SCT050 15/08 Q1012 EISG 191200Z 19010G21KT 130V220 9999 FEW031 SCT047 BKN060 15/08 Q1012 EISG 191130Z 18010KT 140V220 9999 BKN034 15/09 Q1012 EISG 191100Z 18010G23KT 140V220 9999 FEW014 SCT027 BKN033 14/08 Q1011 EISG 191030Z 18010G24KT 140V220 9999 FEW019 BKN031 14/08 Q1011 EISG 191000Z 18010G29KT 140V210 9999 FEW018 SCT023 BKN029 14/08 Q1011 EISG 190930Z 18011G21KT 140V220 9999 FEW014 SCT021 BKN027 13/08 Q1011 EISG 190900Z 17011KT 140V230 9999 FEW018 BKN056 12/08 Q1011 EISG 190830Z 17013G23KT 140V200 9999 FEW017 BKN040 12/08 Q1011 EISG 181930Z 17008KT 130V220 CAVOK 11/09 Q1004 EISG 181900Z 16006KT 110V260 9999 FEW016 10/09 Q1004 EISG 181830Z 16006KT 120V210 CAVOK 10/09 Q1004 EISG 181800Z 16006KT 110V200 9999 -RA OVC017 10/09 Q1004 RERA EISG 181730Z 16006KT 120V210 9000 -RA BKN017 OVC024 10/09 Q1004 RERA EISG 181700Z 17007KT 140V220 9999 -RA FEW013 BKN018 OVC038 10/09 Q1005 RERA EISG 181630Z 21011G21KT 180V240 6000 -RA BKN015 OVC020 10/09 Q1005 RERA EISG 181600Z 15016G30KT 110V200 9000 SCT015 BKN020 15/10 Q1004 EISG 181530Z 15019G34KT 120V180 9999 FEW015 SCT038 16/08 Q1003 EISG 181500Z 14021G38KT 100V180 9999 FEW042 17/08 Q1003 EISG 181430Z 14017G30KT 110V170 9999 FEW042 18/08 Q1004 EISG 181400Z 15018G32KT 110V180 9999 SCT040 17/07 Q1005

METAR Messwerte "SLIGO ARPT" EISG

Zurück zur Übersicht

Ortsname
Ländercode / m ü. NN
Zeit Temperatur Taupunkt Rel.
Luftfeuchte
Luftdruck:
Altimeter
NN
Station
Wind in Beaufort
(Knoten)
Sichtweite
(Meter)
Wolken
(Meter über Grund)
Wettererscheinung
SLIGO ARPT
IE 1
Do 19.05. 21:30141077 %1012
1012
1012
S 3 (8)
SO - SSW
>= 10000Stark bewölkt (1500)
Wolkig (820)
Leicht bewölkt (610)
 
SLIGO ARPT
IE 1
Do 19.05. 20:3015759 %1012
1012
1012
SSW 4 (12) - 6 (25)
SSO - SW
>= 10000Stark bewölkt (980)
Leicht bewölkt (640)
 
SLIGO ARPT
IE 1
Do 19.05. 17:3016651 %1012
1012
1012
SSW 4 (11) - 7 (29)
SSO - SW
>= 10000Wolkig (1700)
Wolkig (1500)
 
SLIGO ARPT
IE 1
Do 19.05. 17:0016651 %1012
1012
1012
S 4 (12)
SO - SW
>= 10000Wolkig (1500)
Leicht bewölkt (610)
 
SLIGO ARPT
IE 1
Do 19.05. 16:3014972 %1012
1012
1012
SW 4 (13)>= 10000Wolkig (1500)
Leicht bewölkt (1300)
 
SLIGO ARPT
IE 1
Do 19.05. 16:00141077 %1012
1012
1012
SSW 3 (7)
SO - WSW
>= 10000Stark bewölkt (1800)
Wolkig (610)
Leicht bewölkt (400)
 
SLIGO ARPT
IE 1
Do 19.05. 15:3015863 %1012
1012
1012
SSW 3 (10) - 5 (20)
SSO - SW
 Stark bewölkt (1500)
Leicht bewölkt (520)
Regen-Schauer (schwach)
SLIGO ARPT
IE 1
Do 19.05. 15:0015863 %1012
1012
1012
S 3 (9) - 6 (21)
SSO - SSW
>= 10000Stark bewölkt (1400)
Leicht bewölkt (760)
 
SLIGO ARPT
IE 1
Do 19.05. 14:3015863 %1012
1012
1012
S 3 (10) - 6 (24)
SO - SSW
>= 10000Wolkig (1500)
Wolkig (1400)
Leicht bewölkt (1100)
 
SLIGO ARPT
IE 1
Do 19.05. 14:0015863 %1012
1012
1012
S 3 (10) - 6 (21)
SO - SW
>= 10000Stark bewölkt (1800)
Wolkig (1400)
Leicht bewölkt (940)
 
SLIGO ARPT
IE 1
Do 19.05. 13:3015967 %1012
1012
1012
S 3 (10)
SO - SW
>= 10000Stark bewölkt (1000) 
SLIGO ARPT
IE 1
Do 19.05. 13:0014867 %1011
1011
1011
S 3 (10) - 6 (23)
SO - SW
>= 10000Stark bewölkt (1000)
Wolkig (820)
Leicht bewölkt (430)
 
SLIGO ARPT
IE 1
Do 19.05. 12:3014867 %1011
1011
1011
S 3 (10) - 6 (24)
SO - SW
>= 10000Stark bewölkt (940)
Leicht bewölkt (580)
 
SLIGO ARPT
IE 1
Do 19.05. 12:0014867 %1011
1011
1011
S 3 (10) - 7 (29)
SO - SSW
>= 10000Stark bewölkt (880)
Wolkig (700)
Leicht bewölkt (550)
 
SLIGO ARPT
IE 1
Do 19.05. 11:3013872 %1011
1011
1011
S 4 (11) - 6 (21)
SO - SW
>= 10000Stark bewölkt (820)
Wolkig (640)
Leicht bewölkt (430)
 
SLIGO ARPT
IE 1
Do 19.05. 11:0012876 %1011
1011
1011
S 4 (11)
SO - SW
>= 10000Stark bewölkt (1700)
Leicht bewölkt (550)
 
SLIGO ARPT
IE 1
Do 19.05. 10:3012876 %1011
1011
1011
S 4 (13) - 6 (23)
SO - SSW
>= 10000Stark bewölkt (1200)
Leicht bewölkt (520)
 
SLIGO ARPT
IE 1
Mi 18.05. 21:3011987 %1004
1004
1004
S 3 (8)
SO - SW
>= 10000Nicht signifikant 
SLIGO ARPT
IE 1
Mi 18.05. 21:0010993 %1004
1004
1004
SSO 2 (6)
OSO - W
>= 10000Leicht bewölkt (490) 
SLIGO ARPT
IE 1
Mi 18.05. 20:3010993 %1004
1004
1004
SSO 2 (6)
OSO - SSW
>= 10000Nicht signifikant 
SLIGO ARPT
IE 1
Mi 18.05. 20:0010993 %1004
1004
1004
SSO 2 (6)
OSO - SSW
>= 10000Bedeckt (520)Regen (schwach)
SLIGO ARPT
IE 1
Mi 18.05. 19:3010993 %1004
1004
1004
SSO 2 (6)
OSO - SSW
9000Bedeckt (730)
Stark bewölkt (520)
Regen (schwach)
SLIGO ARPT
IE 1
Mi 18.05. 19:0010993 %1005
1005
1005
S 3 (7)
SO - SW
>= 10000Bedeckt (1200)
Stark bewölkt (550)
Leicht bewölkt (400)
Regen (schwach)
SLIGO ARPT
IE 1
Mi 18.05. 18:3010993 %1005
1005
1005
SSW 4 (11) - 6 (21)
S - WSW
6000Bedeckt (610)
Stark bewölkt (460)
Regen (schwach)
SLIGO ARPT
IE 1
Mi 18.05. 18:00151072 %1004
1004
1004
SSO 5 (16) - 7 (30)
OSO - SSW
9000Stark bewölkt (610)
Wolkig (460)
 
SLIGO ARPT
IE 1
Mi 18.05. 17:3016859 %1003
1003
1003
SSO 5 (19) - 8 (34)
OSO - S
>= 10000Wolkig (1200)
Leicht bewölkt (460)
 
SLIGO ARPT
IE 1
Mi 18.05. 17:0017855 %1003
1003
1003
SO 6 (21) - 8 (38)
O - S
>= 10000Leicht bewölkt (1300) 
SLIGO ARPT
IE 1
Mi 18.05. 16:3018852 %1004
1004
1004
SO 5 (17) - 7 (30)
OSO - S
>= 10000Leicht bewölkt (1300) 
SLIGO ARPT
IE 1
Mi 18.05. 16:0017752 %1005
1005
1005
SSO 5 (18) - 7 (32)
OSO - S
>= 10000Wolkig (1200) 

Altimeter: Einstellung am Altimeter (Höhenmesser), die Höhe 0 muss auf diesen Luftdruckwert zeigen, damit das Gerät die Stationshöhe richtig anzeigt.

NN: Luftdruck reduziert auf "Normal Null", auf Meereshöhe, dieser von der Temperatur abhängige Wert wird bisweilen unkorrekt einfach als "Luftdruck" bezeichnet. Eigentlich nur eine fiktive Größe, die es erlaubt, Stationen auf unterschiedlichen Höhen miteinander zu vergleichen.

Station: Realer Luftdruck an der Station.